Time;durP1;ratioP1;P1;durP2;ratioP2;P2;SDS_P1;SDS_P2;PMS_P1;PMS_P2;Temp;Humidity;BMP_temperature;BMP_pressure;BME280_temperature;BME280_humidity;BME280_pressure;Samples;Min_cycle;Max_cycle;Signal;HPM_P1;HPM_P2
2022/12/29 00:03:17;;;;;;;2.38;1.52;;;;;;;18.57;51.55;96543.53;10319149;28;20395;-55
2022/12/29 00:08:40;;;;;;;2.70;1.60;;;;;;;18.56;51.57;96530.34;10329188;28;20522;-54
2022/12/29 00:36:39;;;;;;;2.13;1.17;;;;;;;18.50;51.18;96510.06;10338026;28;19929;-54
2022/12/29 00:44:04;;;;;;;2.88;1.45;;;;;;;18.49;51.27;96514.69;10323081;28;20062;-54
2022/12/29 00:47:57;;;;;;;1.63;1.35;;;;;;;18.47;51.34;96508.81;10323053;28;20050;-56
2022/12/29 00:53:16;;;;;;;2.45;1.48;;;;;;;18.46;51.31;96506.44;10337377;28;20066;-55
2022/12/29 00:58:35;;;;;;;2.30;1.48;;;;;;;18.46;51.31;96509.16;10337451;28;20066;-54
2022/12/29 01:03:55;;;;;;;2.22;1.20;;;;;;;18.46;51.39;96506.44;10334874;28;20526;-54
2022/12/29 01:14:53;;;;;;;1.67;1.30;;;;;;;18.43;51.18;96510.59;10336265;28;20058;-54
2022/12/29 01:20:13;;;;;;;4.07;1.65;;;;;;;18.41;51.22;96506.66;10334924;28;20057;-55
2022/12/29 01:25:32;;;;;;;1.92;1.20;;;;;;;18.41;51.16;96510.13;10336451;28;20466;-55
2022/12/29 01:30:52;;;;;;;1.73;1.35;;;;;;;18.41;51.22;96509.34;10334417;28;20499;-54
2022/12/29 01:36:14;;;;;;;2.45;1.27;;;;;;;18.40;51.21;96521.22;10334667;28;20061;-54
2022/12/29 01:41:33;;;;;;;1.70;1.00;;;;;;;18.38;51.08;96511.56;10335235;28;20510;-55
2022/12/29 01:46:55;;;;;;;1.80;1.00;;;;;;;18.38;51.11;96508.06;10333858;28;20073;-54
2022/12/29 01:52:14;;;;;;;2.97;1.30;;;;;;;18.35;51.18;96509.50;10335113;28;20449;-54
2022/12/29 01:57:37;;;;;;;2.15;1.30;;;;;;;18.35;51.16;96487.94;10334176;28;20054;-56
2022/12/29 02:02:56;;;;;;;3.85;1.13;;;;;;;18.33;51.15;96484.78;10300591;28;20061;-55
2022/12/29 02:08:16;;;;;;;1.60;1.15;;;;;;;18.33;51.11;96495.56;10329046;28;20072;-55
2022/12/29 02:13:36;;;;;;;1.27;0.93;;;;;;;18.32;51.24;96482.38;10333973;28;20059;-54
2022/12/29 02:19:26;;;;;;;2.20;1.25;;;;;;;18.32;51.18;96466.22;10333969;28;20061;-54
2022/12/29 02:24:57;;;;;;;2.25;1.17;;;;;;;18.31;51.06;96459.25;10332493;28;20046;-54
2022/12/29 02:30:54;;;;;;;2.03;1.05;;;;;;;18.29;51.19;96464.97;10333512;28;20058;-54
2022/12/29 02:36:33;;;;;;;1.60;1.10;;;;;;;18.28;51.06;96455.28;10301616;28;20058;-54
2022/12/29 02:42:08;;;;;;;1.85;1.10;;;;;;;18.28;51.26;96452.56;10310256;28;20491;-55
2022/12/29 02:47:46;;;;;;;2.72;1.10;;;;;;;18.25;51.21;96439.75;10300871;28;20087;-55
2022/12/29 02:53:08;;;;;;;1.48;1.00;;;;;;;18.26;50.99;96440.53;10317009;28;20108;-55
2022/12/29 02:58:28;;;;;;;1.55;0.90;;;;;;;18.23;51.05;96439.28;10318359;28;20058;-54
2022/12/29 03:03:59;;;;;;;1.60;1.00;;;;;;;18.23;51.14;96436.59;10326803;28;20058;-55
2022/12/29 03:09:41;;;;;;;1.17;0.80;;;;;;;18.23;51.03;96436.59;10305528;28;20093;-54
2022/12/29 03:20:55;;;;;;;2.70;1.10;;;;;;;18.20;51.05;96434.53;10345248;28;20051;-54
2022/12/29 03:26:18;;;;;;;1.00;0.80;;;;;;;18.20;50.94;96442.63;10344448;28;20050;-54
2022/12/29 03:31:39;;;;;;;1.50;0.93;;;;;;;18.18;50.93;96439.47;10317266;28;20422;-55
2022/12/29 03:37:05;;;;;;;1.15;0.90;;;;;;;18.18;51.00;96448.34;10316875;28;20462;-54
2022/12/29 03:42:27;;;;;;;1.70;1.10;;;;;;;18.17;50.90;96444.06;10331926;28;20117;-55
2022/12/29 03:47:47;;;;;;;1.33;0.85;;;;;;;18.15;51.11;96449.00;10331248;28;20062;-54
2022/12/29 03:53:07;;;;;;;1.63;0.90;;;;;;;18.15;50.99;96440.09;10316749;28;20061;-54
2022/12/29 03:58:27;;;;;;;1.38;0.93;;;;;;;18.14;50.92;96446.63;10319899;28;20126;-54
2022/12/29 04:03:58;;;;;;;1.13;0.70;;;;;;;18.13;51.04;96447.72;10324527;28;20065;-54
2022/12/29 04:09:18;;;;;;;1.25;0.80;;;;;;;18.12;50.98;96448.84;10339394;28;20069;-54
2022/12/29 04:14:40;;;;;;;1.50;1.00;;;;;;;18.12;51.09;96440.75;10297759;28;20063;-55
2022/12/29 04:25:38;;;;;;;1.60;0.97;;;;;;;18.09;51.05;96434.13;10283489;28;20058;-54
2022/12/29 04:31:01;;;;;;;0.80;0.70;;;;;;;18.08;51.13;96432.53;10298114;28;20462;-54
2022/12/29 04:36:27;;;;;;;1.45;0.88;;;;;;;18.08;51.16;96424.44;10309697;28;20047;-54
2022/12/29 04:41:46;;;;;;;1.25;0.73;;;;;;;18.08;50.98;96431.75;10297085;28;20121;-55
2022/12/29 04:47:12;;;;;;;1.27;0.82;;;;;;;18.07;51.11;96419.34;10296776;28;20051;-54
2022/12/29 04:52:38;;;;;;;1.02;0.82;;;;;;;18.05;51.00;96418.91;10282587;28;20074;-55
2022/12/29 04:57:59;;;;;;;1.05;0.70;;;;;;;18.05;51.09;96422.38;10282162;28;20581;-55
2022/12/29 05:03:21;;;;;;;1.23;0.80;;;;;;;18.03;51.15;96413.03;10302908;28;20419;-54
2022/12/29 05:08:42;;;;;;;1.20;1.00;;;;;;;18.03;50.98;96410.34;10294433;28;20058;-54
2022/12/29 05:14:02;;;;;;;1.27;0.80;;;;;;;18.02;50.93;96398.00;10322300;28;20054;-54
2022/12/29 05:19:22;;;;;;;1.27;0.80;;;;;;;18.02;51.07;96395.31;10349481;28;20426;-54
2022/12/29 05:24:42;;;;;;;0.95;0.60;;;;;;;18.02;50.98;96398.00;10321581;28;20066;-55
2022/12/29 05:30:03;;;;;;;1.10;0.77;;;;;;;18.02;51.08;96409.56;10314253;28;20066;-55
2022/12/29 05:35:23;;;;;;;1.63;0.75;;;;;;;18.02;51.03;96411.47;10348049;28;20065;-55
2022/12/29 05:40:43;;;;;;;0.95;0.88;;;;;;;18.04;50.90;96422.72;10335574;28;20054;-55
2022/12/29 05:46:24;;;;;;;0.77;0.70;;;;;;;18.04;50.81;96417.31;10320453;28;20495;-55
2022/12/29 05:52:10;;;;;;;0.90;0.70;;;;;;;18.05;50.97;96403.50;10334373;28;20109;-54
2022/12/29 05:57:30;;;;;;;0.60;0.60;;;;;;;18.06;50.88;96405.09;10334346;28;20101;-55
2022/12/29 06:02:57;;;;;;;1.00;0.80;;;;;;;18.08;50.85;96394.78;10321057;28;20530;-54
2022/12/29 06:08:17;;;;;;;0.60;0.60;;;;;;;18.09;50.91;96391.00;10333504;28;20062;-55
2022/12/29 06:13:37;;;;;;;0.85;0.73;;;;;;;18.10;50.84;96375.59;10332439;28;20063;-55
2022/12/29 06:18:57;;;;;;;1.00;0.68;;;;;;;18.13;50.72;96377.63;10311899;28;20080;-55
2022/12/29 06:24:16;;;;;;;1.58;0.80;;;;;;;18.14;50.74;96371.91;10318871;28;20070;-54
2022/12/29 06:29:36;;;;;;;0.90;0.60;;;;;;;18.16;50.68;96377.78;10332829;28;20062;-54
2022/12/29 06:34:56;;;;;;;0.52;0.52;;;;;;;18.20;50.76;96377.13;10333592;28;20050;-52
2022/12/29 06:40:17;;;;;;;0.98;0.80;;;;;;;18.22;50.57;96375.69;10332403;28;20450;-55
2022/12/29 06:46:02;;;;;;;1.00;0.63;;;;;;;18.23;50.69;96385.38;10317628;28;20537;-54
2022/12/29 06:51:21;;;;;;;0.65;0.60;;;;;;;18.25;50.51;96385.84;10332993;28;20059;-54
2022/12/29 06:56:41;;;;;;;0.73;0.63;;;;;;;18.27;50.46;96391.69;10320317;28;20050;-55
2022/12/29 07:02:01;;;;;;;0.68;0.68;;;;;;;18.30;50.57;96393.72;10313164;28;20063;-54
2022/12/29 07:07:21;;;;;;;0.93;0.60;;;;;;;18.34;50.48;96393.88;10345965;28;20050;-55
2022/12/29 07:12:40;;;;;;;0.85;0.68;;;;;;;18.36;50.46;96391.63;10320203;28;20136;-54
2022/12/29 07:17:59;;;;;;;0.60;0.50;;;;;;;18.38;50.46;96395.59;10331548;28;20507;-55
2022/12/29 07:23:19;;;;;;;0.70;0.70;;;;;;;18.41;50.26;96399.53;10345700;28;20054;-55
2022/12/29 07:28:39;;;;;;;0.60;0.60;;;;;;;18.44;50.29;96398.09;10331646;28;20113;-55
2022/12/29 07:33:58;;;;;;;0.57;0.57;;;;;;;18.46;50.28;96406.66;10348873;28;20450;-55
2022/12/29 07:39:18;;;;;;;0.73;0.68;;;;;;;18.48;50.21;96416.00;10339467;28;20061;-55
2022/12/29 07:44:37;;;;;;;0.60;0.60;;;;;;;18.51;50.23;96406.47;10340204;28;20057;-55
2022/12/29 07:50:09;;;;;;;0.90;0.50;;;;;;;18.53;50.17;96404.25;10333291;28;20450;-55
2022/12/29 07:55:29;;;;;;;0.65;0.60;;;;;;;18.57;50.51;96407.84;10339799;28;20058;-54
2022/12/29 08:00:53;;;;;;;2.30;0.57;;;;;;;18.58;50.49;96404.84;10334526;28;20058;-54
2022/12/29 08:06:13;;;;;;;0.93;0.70;;;;;;;18.61;50.75;96400.69;10323732;28;20495;-55
2022/12/29 08:11:32;;;;;;;2.15;0.60;;;;;;;18.65;50.82;96408.94;10335640;28;20055;-55
2022/12/29 08:16:51;;;;;;;0.50;0.50;;;;;;;18.67;51.12;96395.91;10332092;28;20058;-55
2022/12/29 08:22:11;;;;;;;1.40;0.70;;;;;;;18.70;51.04;96401.44;10338768;28;20062;-55
2022/12/29 08:27:30;;;;;;;0.80;0.60;;;;;;;18.73;51.23;96400.75;10337968;28;20054;-55
2022/12/29 08:32:49;;;;;;;0.65;0.50;;;;;;;18.75;51.37;96401.22;10338320;28;20062;-56
2022/12/29 08:38:11;;;;;;;0.68;0.57;;;;;;;18.78;51.46;96402.50;10327649;28;20054;-55
2022/12/29 08:43:30;;;;;;;0.70;0.70;;;;;;;18.80;51.39;96404.88;10322829;28;20495;-55
2022/12/29 08:48:50;;;;;;;1.05;0.63;;;;;;;18.83;51.31;96410.41;10337439;28;20066;-55
2022/12/29 08:54:10;;;;;;;0.70;0.60;;;;;;;18.85;51.42;96410.88;10312844;28;20067;-55
2022/12/29 08:59:29;;;;;;;0.65;0.50;;;;;;;18.89;51.73;96419.09;10304967;28;20055;-55
2022/12/29 09:04:49;;;;;;;1.33;0.50;;;;;;;18.91;51.81;96422.25;10332684;28;20058;-55
2022/12/29 09:10:08;;;;;;;2.45;0.68;;;;;;;18.96;52.18;96428.25;10336820;28;20061;-55
2022/12/29 09:15:28;;;;;;;1.60;0.52;;;;;;;18.98;52.24;96422.53;10327637;28;20396;-55
2022/12/29 09:20:47;;;;;;;1.55;0.80;;;;;;;19.00;52.22;96423.00;10332879;28;20061;-54
2022/12/29 09:26:07;;;;;;;3.13;0.93;;;;;;;19.04;52.18;96415.03;10333124;28;20443;-55
2022/12/29 09:31:27;;;;;;;2.33;0.80;;;;;;;19.07;52.31;96415.16;10333866;28;20059;-55
2022/12/29 09:36:46;;;;;;;1.52;0.82;;;;;;;19.09;52.10;96421.03;10329456;28;20058;-55
2022/12/29 09:42:23;;;;;;;0.98;0.80;;;;;;;19.10;52.11;96419.91;10329626;28;20053;-55
2022/12/29 09:47:45;;;;;;;0.73;0.73;;;;;;;19.13;52.06;96423.84;10317892;28;20057;-56
2022/12/29 09:53:13;;;;;;;1.77;0.70;;;;;;;19.17;52.01;96435.59;10317337;28;20058;-55
2022/12/29 09:58:37;;;;;;;1.20;0.77;;;;;;;19.19;51.81;96414.44;10336412;28;20050;-56
2022/12/29 10:03:58;;;;;;;0.90;0.77;;;;;;;19.21;51.82;96406.78;10314563;28;20494;-55
2022/12/29 10:09:33;;;;;;;0.80;0.80;;;;;;;19.24;51.97;96397.22;10317984;28;20113;-55
2022/12/29 10:15:07;;;;;;;2.15;0.80;;;;;;;19.27;51.82;96402.75;10263411;28;1129498;-55
2022/12/29 10:20:29;;;;;;;3.20;0.82;;;;;;;19.28;51.89;96388.13;10333754;28;20058;-56
2022/12/29 10:25:50;;;;;;;0.70;0.70;;;;;;;19.30;51.87;96383.19;10324209;28;20046;-54
2022/12/29 10:31:24;;;;;;;0.80;0.70;;;;;;;19.33;51.90;96384.44;10332641;28;20105;-54
2022/12/29 10:36:48;;;;;;;0.85;0.55;;;;;;;19.34;51.95;96376.00;10332474;28;20529;-55
2022/12/29 10:42:13;;;;;;;2.10;0.77;;;;;;;19.37;51.73;96385.34;10320650;28;20057;-53
2022/12/29 10:47:47;;;;;;;1.02;0.75;;;;;;;19.40;51.71;96381.97;10333370;28;20418;-55
2022/12/29 10:53:06;;;;;;;0.85;0.68;;;;;;;19.41;51.70;96378.16;10318420;28;20058;-54
2022/12/29 10:58:26;;;;;;;0.65;0.65;;;;;;;19.43;51.74;96362.41;10345977;28;20384;-54
2022/12/29 11:03:59;;;;;;;2.15;0.68;;;;;;;19.45;51.71;96365.56;10332784;28;20057;-55
2022/12/29 11:09:27;;;;;;;0.57;0.55;;;;;;;19.48;51.82;96348.69;10329307;28;20061;-54
2022/12/29 11:14:48;;;;;;;0.52;0.50;;;;;;;19.50;51.56;96351.84;10310314;28;20104;-55
2022/12/29 11:20:31;;;;;;;0.50;0.50;;;;;;;19.51;51.38;96345.31;10332071;28;20069;-55
2022/12/29 11:26:10;;;;;;;0.80;0.70;;;;;;;19.53;51.34;96340.38;10332555;28;20081;-55
2022/12/29 11:31:30;;;;;;;0.60;0.60;;;;;;;19.55;51.11;96337.34;10326680;28;20109;-55
2022/12/29 11:36:52;;;;;;;0.63;0.60;;;;;;;19.56;51.24;96342.41;10331861;28;20058;-55
2022/12/29 11:42:17;;;;;;;1.50;0.60;;;;;;;19.58;51.20;96339.34;10316675;28;20074;-55
2022/12/29 11:47:37;;;;;;;0.75;0.60;;;;;;;19.59;51.32;96334.75;10316351;28;20058;-54
2022/12/29 11:53:15;;;;;;;0.68;0.60;;;;;;;19.61;51.43;96330.59;10331644;28;20062;-54
2022/12/29 11:58:37;;;;;;;0.70;0.68;;;;;;;19.62;51.14;96331.38;10322916;28;20054;-54
2022/12/29 12:04:13;;;;;;;0.50;0.50;;;;;;;19.64;51.03;96319.13;10323443;28;20070;-54
2022/12/29 12:09:36;;;;;;;;;;;;;;;19.64;51.11;96321.81;10337981;28;20411;-54
2022/12/29 12:14:59;;;;;;;0.82;0.70;;;;;;;19.66;51.04;96322.28;10319902;28;19976;-54
2022/12/29 12:20:52;;;;;;;0.40;0.40;;;;;;;19.66;51.11;96314.16;10320699;28;20510;-54
2022/12/29 12:26:16;;;;;;;0.60;0.60;;;;;;;19.67;51.27;96307.63;10338539;28;20069;-54
2022/12/29 12:31:47;;;;;;;0.75;0.55;;;;;;;19.68;51.14;96319.22;10336678;28;20414;-54
2022/12/29 12:37:26;;;;;;;0.65;0.60;;;;;;;19.69;50.85;96320.81;10333096;28;20070;-54
2022/12/29 12:43:22;;;;;;;0.60;0.60;;;;;;;19.68;49.88;96325.44;10350913;28;20502;-55
2022/12/29 12:49:07;;;;;;;1.95;0.77;;;;;;;19.68;50.96;96319.22;10304242;28;20062;-54
2022/12/29 12:55:08;;;;;;;1.60;0.60;;;;;;;19.67;50.91;96307.63;10333363;28;20104;-54
2022/12/29 13:00:33;;;;;;;0.68;0.68;;;;;;;19.67;50.81;96312.25;10334820;28;20126;-54
2022/12/29 13:06:07;;;;;;;0.60;0.60;;;;;;;19.67;50.79;96301.44;10337199;28;20058;-54
2022/12/29 13:11:53;;;;;;;0.70;0.70;;;;;;;19.67;51.16;96301.44;10336222;28;20556;-55
2022/12/29 13:17:16;;;;;;;0.68;0.57;;;;;;;19.67;51.15;96302.22;10331264;28;20450;-54
2022/12/29 13:22:53;;;;;;;1.63;0.70;;;;;;;19.66;51.51;96295.25;10335854;28;20506;-52
2022/12/29 13:28:28;;;;;;;0.88;0.65;;;;;;;19.66;51.65;96299.84;10330999;28;20544;-53
2022/12/29 13:33:56;;;;;;;1.58;0.68;;;;;;;19.66;51.67;96295.25;10320516;28;20058;-51
2022/12/29 13:39:35;;;;;;;0.65;0.50;;;;;;;19.66;51.72;96302.53;10320496;28;20514;-52
2022/12/29 13:44:54;;;;;;;;;;;;;;;19.64;52.04;96299.41;10335627;28;20063;-53
2022/12/29 13:50:17;;;;;;;0.82;0.70;;;;;;;19.64;51.77;96313.72;10335270;28;19929;-53
2022/12/29 13:55:41;;;;;;;1.75;0.70;;;;;;;19.63;51.93;96309.41;10333420;28;20050;-50
2022/12/29 14:01:13;;;;;;;0.80;0.50;;;;;;;19.63;52.04;96314.81;10330348;28;20054;-51
2022/12/29 14:06:40;;;;;;;0.63;0.60;;;;;;;19.62;52.11;96315.16;10324725;28;20521;-48
2022/12/29 14:11:59;;;;;;;1.23;0.63;;;;;;;19.62;52.37;96325.97;10332173;28;20058;-47
2022/12/29 14:17:20;;;;;;;0.60;0.60;;;;;;;19.61;52.32;96324.41;10332542;28;20057;-51
2022/12/29 14:22:55;;;;;;;0.60;0.60;;;;;;;19.61;52.43;96335.22;10323560;28;20058;-50
2022/12/29 14:28:20;;;;;;;0.50;0.50;;;;;;;19.60;52.29;96333.63;10333586;28;20521;-51
2022/12/29 14:33:41;;;;;;;0.73;0.50;;;;;;;19.59;52.37;96338.25;10306521;28;20050;-51
2022/12/29 14:39:01;;;;;;;0.40;0.40;;;;;;;19.59;52.30;96326.66;10327579;28;20062;-51
2022/12/29 14:44:20;;;;;;;0.50;0.50;;;;;;;19.59;52.36;96342.88;10332574;28;20499;-51
2022/12/29 14:49:42;;;;;;;0.70;0.60;;;;;;;19.57;52.44;96326.97;10332859;28;20086;-51
2022/12/29 14:55:05;;;;;;;0.50;0.50;;;;;;;19.58;52.42;96333.16;10320928;28;20134;-54
2022/12/29 15:00:30;;;;;;;2.15;0.80;;;;;;;19.56;52.35;96334.31;10318075;28;20109;-54
2022/12/29 15:05:53;;;;;;;1.35;0.50;;;;;;;19.54;52.21;96336.56;10318036;28;20093;-53
2022/12/29 15:11:19;;;;;;;0.98;0.70;;;;;;;19.54;52.30;96343.84;10332049;28;20541;-53
2022/12/29 15:16:38;;;;;;;0.57;0.57;;;;;;;19.54;52.20;96355.47;10319616;28;20399;-53
2022/12/29 15:21:58;;;;;;;0.95;0.80;;;;;;;19.53;52.42;96355.78;10314218;28;20074;-53
2022/12/29 15:27:23;;;;;;;0.68;0.52;;;;;;;19.51;52.34;96358.03;10342280;28;20061;-54
2022/12/29 15:32:45;;;;;;;0.52;0.52;;;;;;;19.50;52.38;96356.44;10317265;28;20511;-54
2022/12/29 15:38:16;;;;;;;2.50;0.70;;;;;;;19.51;52.55;96366.16;10332257;28;20154;-53
2022/12/29 15:44:07;;;;;;;1.05;0.50;;;;;;;19.49;52.49;96350.25;10331828;28;20058;-55
2022/12/29 15:49:27;;;;;;;0.98;0.70;;;;;;;19.47;52.57;96341.72;10332033;28;20058;-53
2022/12/29 15:54:49;;;;;;;1.05;0.60;;;;;;;19.49;52.70;96360.28;10334517;28;20051;-54
2022/12/29 16:00:33;;;;;;;0.50;0.50;;;;;;;19.47;52.99;96370.63;10352409;28;20121;-54
2022/12/29 16:05:55;;;;;;;0.50;0.50;;;;;;;19.46;52.81;96363.66;10339498;28;20069;-53
2022/12/29 16:11:24;;;;;;;0.50;0.50;;;;;;;19.45;52.90;96368.28;10338520;28;20083;-54
2022/12/29 16:16:44;;;;;;;0.70;0.50;;;;;;;19.46;53.02;96382.56;10333205;28;20105;-54
2022/12/29 16:22:11;;;;;;;2.55;0.73;;;;;;;19.44;53.02;96382.09;10316750;28;20070;-53
2022/12/29 16:27:38;;;;;;;1.25;0.50;;;;;;;19.43;52.96;96375.91;10336771;28;20384;-54
2022/12/29 16:33:03;;;;;;;1.88;0.60;;;;;;;19.42;53.22;96373.53;10333107;28;20414;-55
2022/12/29 16:38:22;;;;;;;1.65;0.60;;;;;;;19.41;53.21;96380.09;10323334;28;20076;-52
2022/12/29 16:43:42;;;;;;;0.70;0.70;;;;;;;19.40;53.38;96384.69;10337979;28;20050;-55
2022/12/29 16:49:02;;;;;;;1.13;0.63;;;;;;;19.39;53.42;96385.03;10337280;28;20495;-55
2022/12/29 16:54:35;;;;;;;0.57;0.55;;;;;;;19.40;53.59;96381.19;10337744;28;20067;-55
2022/12/29 16:59:58;;;;;;;0.55;0.55;;;;;;;19.38;53.39;96388.84;10308936;28;20073;-54
2022/12/29 17:05:18;;;;;;;0.65;0.57;;;;;;;19.36;53.68;96384.53;10336097;28;20058;-54
2022/12/29 17:16:15;;;;;;;1.05;0.70;;;;;;;19.35;53.63;96395.72;10330217;28;20074;-54
2022/12/29 17:21:35;;;;;;;0.60;0.60;;;;;;;19.34;53.70;96391.41;10336087;28;20058;-55
2022/12/29 17:26:58;;;;;;;0.50;0.50;;;;;;;19.34;53.51;96391.41;10349565;28;20065;-54
2022/12/29 17:32:19;;;;;;;0.55;0.50;;;;;;;19.32;53.73;96394.44;10335744;28;20066;-54
2022/12/29 17:37:39;;;;;;;0.93;0.50;;;;;;;19.30;53.78;96383.19;10336273;28;20062;-54
2022/12/29 17:42:59;;;;;;;0.47;0.40;;;;;;;19.31;53.92;96392.88;10313721;28;20085;-54
2022/12/29 17:48:19;;;;;;;0.80;0.70;;;;;;;19.30;53.81;96391.28;10335674;28;20105;-54
2022/12/29 17:53:38;;;;;;;1.30;0.60;;;;;;;19.29;54.05;96397.81;10332884;28;20058;-53
2022/12/29 17:58:58;;;;;;;0.70;0.70;;;;;;;19.29;53.96;96405.13;10326085;28;20070;-54
2022/12/29 18:04:20;;;;;;;0.52;0.52;;;;;;;19.27;53.86;96397.38;10334698;28;20058;-54
2022/12/29 18:09:42;;;;;;;0.70;0.57;;;;;;;19.27;53.85;96408.16;10297515;28;20055;-54
2022/12/29 18:15:02;;;;;;;1.27;0.70;;;;;;;19.25;53.72;96399.59;10299743;28;20054;-54
2022/12/29 18:20:22;;;;;;;1.58;0.70;;;;;;;19.23;53.77;96396.44;10308307;28;20065;-53
2022/12/29 18:25:49;;;;;;;0.98;0.68;;;;;;;19.24;53.76;96402.63;10334054;28;20058;-54
2022/12/29 18:31:16;;;;;;;0.98;0.60;;;;;;;19.21;53.68;96406.78;10324450;28;20057;-54
2022/12/29 18:36:36;;;;;;;1.88;1.00;;;;;;;19.22;53.82;96407.56;10333725;28;20094;-54
2022/12/29 18:41:56;;;;;;;3.67;0.85;;;;;;;19.21;54.39;96414.09;10332748;28;20066;-55
2022/12/29 18:47:16;;;;;;;3.15;0.85;;;;;;;19.20;54.46;96416.00;10332910;28;20117;-55
2022/12/29 18:52:36;;;;;;;2.80;0.80;;;;;;;19.21;55.38;96416.78;10345905;28;20482;-54
2022/12/29 18:57:55;;;;;;;1.70;0.77;;;;;;;19.21;55.98;96420.28;10332720;28;20061;-54
2022/12/29 19:03:17;;;;;;;2.63;0.80;;;;;;;19.20;56.28;96424.09;10332627;28;20062;-54
2022/12/29 19:08:37;;;;;;;3.60;0.93;;;;;;;19.21;56.32;96423.00;10331420;28;20058;-54
2022/12/29 19:13:57;;;;;;;2.95;0.80;;;;;;;19.19;56.48;96429.81;10326312;28;20058;-54
2022/12/29 19:19:17;;;;;;;1.80;0.88;;;;;;;19.19;56.63;96443.31;10345264;28;20054;-55
2022/12/29 19:24:37;;;;;;;1.13;0.70;;;;;;;19.16;56.56;96436.69;10332444;28;20407;-53
2022/12/29 19:29:56;;;;;;;1.88;0.98;;;;;;;19.17;56.62;96438.28;10331081;28;20556;-53
2022/12/29 19:35:16;;;;;;;1.15;0.70;;;;;;;19.15;56.93;96435.91;10332471;28;20050;-53
2022/12/29 19:40:41;;;;;;;0.90;0.60;;;;;;;19.15;56.81;96438.59;10345050;28;20061;-52
2022/12/29 19:46:14;;;;;;;1.38;0.90;;;;;;;19.14;56.83;96430.81;10332237;28;20061;-53
2022/12/29 19:51:33;;;;;;;2.80;0.90;;;;;;;19.12;56.85;96430.38;10317491;28;20133;-54
2022/12/29 19:56:53;;;;;;;1.48;0.70;;;;;;;19.12;56.64;96433.06;10331395;28;20072;-55
2022/12/29 20:02:38;;;;;;;1.98;1.10;;;;;;;19.10;56.98;96441.50;10331596;28;20063;-54
2022/12/29 20:07:58;;;;;;;1.88;0.90;;;;;;;19.10;56.76;96438.78;10331522;28;20096;-53
2022/12/29 20:13:17;;;;;;;2.30;0.90;;;;;;;19.09;56.78;96436.41;10325935;28;20071;-53
2022/12/29 20:18:37;;;;;;;1.27;0.73;;;;;;;19.08;56.93;96443.72;10296530;28;20078;-54
2022/12/29 20:23:57;;;;;;;2.22;0.85;;;;;;;19.09;57.00;96450.72;10291359;28;20066;-53
2022/12/29 20:29:16;;;;;;;2.25;0.98;;;;;;;19.08;56.98;96442.94;10308930;28;20065;-54
2022/12/29 20:34:35;;;;;;;1.92;1.00;;;;;;;19.07;56.76;96444.88;10306605;28;20055;-55
2022/12/29 20:39:55;;;;;;;3.63;1.20;;;;;;;19.05;56.92;96444.41;10295159;28;20062;-53
2022/12/29 20:45:16;;;;;;;4.97;1.35;;;;;;;19.04;56.90;96437.41;10319941;28;20058;-54
2022/12/29 20:50:35;;;;;;;2.65;1.30;;;;;;;19.05;57.14;96440.91;10297131;28;20525;-53
2022/12/29 20:56:04;;;;;;;2.85;1.10;;;;;;;19.03;56.98;96435.03;10297392;28;20118;-54
2022/12/29 21:01:25;;;;;;;1.60;1.10;;;;;;;19.02;57.10;96434.25;10321485;28;20046;-54
2022/12/29 21:06:44;;;;;;;1.73;0.85;;;;;;;19.03;57.15;96435.81;10299982;28;20074;-54
2022/12/29 21:12:05;;;;;;;2.17;1.20;;;;;;;19.02;57.14;96436.94;10330123;28;20042;-54
2022/12/29 21:17:25;;;;;;;1.75;1.10;;;;;;;19.01;57.20;96438.06;10314582;28;20054;-55
2022/12/29 21:22:47;;;;;;;3.17;1.15;;;;;;;19.00;57.36;96439.19;10282187;28;20059;-54
2022/12/29 21:28:11;;;;;;;1.00;0.88;;;;;;;18.99;57.34;96440.28;10296973;28;20070;-53
2022/12/29 21:33:31;;;;;;;1.83;1.02;;;;;;;18.99;57.26;96439.50;10299659;28;20121;-54
2022/12/29 21:38:52;;;;;;;1.35;1.00;;;;;;;18.98;57.28;96433.34;10348575;28;20046;-54
2022/12/29 21:49:49;;;;;;;2.10;1.00;;;;;;;18.96;57.19;96446.38;10295138;28;20054;-54
2022/12/29 21:55:09;;;;;;;2.13;1.08;;;;;;;18.95;57.20;96448.28;10294477;28;20066;-54
2022/12/29 22:17:26;;;;;;;1.00;0.80;;;;;;;18.94;57.38;96446.69;10325962;28;20062;-54
2022/12/29 22:22:46;;;;;;;1.55;0.90;;;;;;;18.93;57.34;96452.41;10334644;28;20061;-54
2022/12/29 22:28:06;;;;;;;1.92;1.10;;;;;;;18.92;57.22;96456.25;10333737;28;20055;-54
2022/12/29 22:33:25;;;;;;;1.60;1.00;;;;;;;18.92;57.66;96450.84;10333092;28;20117;-55
2022/12/29 22:38:45;;;;;;;1.48;0.90;;;;;;;18.91;57.09;96462.75;10333231;28;20506;-54
2022/12/29 22:44:05;;;;;;;1.92;1.10;;;;;;;18.91;56.97;96451.94;10346677;28;20489;-55
2022/12/29 22:49:25;;;;;;;2.78;1.02;;;;;;;18.90;56.99;96458.47;10330658;28;20062;-55
2022/12/29 22:54:44;;;;;;;3.00;1.30;;;;;;;18.89;57.05;96465.00;10333072;28;20058;-54
2022/12/29 23:00:07;;;;;;;0.90;0.80;;;;;;;18.88;57.00;96461.50;10332938;28;20054;-54
2022/12/29 23:05:26;;;;;;;5.45;1.08;;;;;;;18.87;56.87;96467.22;10333055;28;20051;-55
2022/12/29 23:10:46;;;;;;;1.40;1.00;;;;;;;18.87;57.02;96472.63;10332528;28;20458;-54
2022/12/29 23:16:05;;;;;;;3.13;1.05;;;;;;;18.86;57.01;96468.34;10320208;28;20073;-54
2022/12/29 23:21:25;;;;;;;2.85;0.93;;;;;;;18.85;56.91;96455.97;10345693;28;20058;-55
2022/12/29 23:26:45;;;;;;;1.63;1.00;;;;;;;18.84;56.92;96460.59;10332243;28;20062;-54
2022/12/29 23:32:05;;;;;;;1.77;1.13;;;;;;;18.84;56.64;96455.19;10339811;28;20105;-54
2022/12/29 23:37:24;;;;;;;1.52;0.90;;;;;;;18.82;56.55;96451.22;10331288;28;20264;-55
2022/12/29 23:42:44;;;;;;;1.77;1.23;;;;;;;18.81;56.37;96446.94;10331580;28;20513;-54
2022/12/29 23:48:04;;;;;;;1.27;0.90;;;;;;;18.80;56.27;96454.25;10332076;28;20054;-54
2022/12/29 23:53:23;;;;;;;1.50;1.10;;;;;;;18.80;56.06;96458.84;10332289;28;20065;-54
2022/12/29 23:58:43;;;;;;;1.55;0.95;;;;;;;18.78;55.95;96472.66;10336296;28;20054;-54
